Time;durP1;ratioP1;P1;durP2;ratioP2;P2;SDS_P1;SDS_P2;PMS_P1;PMS_P2;Temp;Humidity;BMP_temperature;BMP_pressure;BME280_temperature;BME280_humidity;BME280_pressure;Samples;Min_cycle;Max_cycle;Signal;HPM_P1;HPM_P2
2022/08/25 00:00:41;;;;;;;;;;;24.90;52.00;;;;;;5025611;28;19971;-61
2022/08/25 00:03:08;;;;;;;;;;;24.90;52.10;;;;;;5025620;28;19926;-62
2022/08/25 00:05:35;;;;;;;;;;;24.90;52.20;;;;;;5026141;28;20028;-61
2022/08/25 00:08:04;;;;;;;;;;;24.90;52.20;;;;;;5025866;28;19921;-62
2022/08/25 00:10:31;;;;;;;;;;;24.90;52.20;;;;;;5025732;28;19920;-61
2022/08/25 00:12:58;;;;;;;;;;;24.90;52.20;;;;;;5029063;28;19975;-61
2022/08/25 00:15:25;;;;;;;;;;;24.90;52.30;;;;;;5023530;28;20505;-62
2022/08/25 00:17:52;;;;;;;;;;;24.90;52.30;;;;;;5028715;28;19925;-61
2022/08/25 00:20:19;;;;;;;;;;;24.90;52.40;;;;;;5023174;28;19971;-62
2022/08/25 00:22:45;;;;;;;;;;;24.90;52.40;;;;;;5025400;28;19932;-61
2022/08/25 00:25:13;;;;;;;;;;;24.90;52.40;;;;;;5023724;28;20333;-62
2022/08/25 00:27:41;;;;;;;;;;;24.90;52.40;;;;;;5026984;28;19928;-62
2022/08/25 00:30:09;;;;;;;;;;;24.90;52.50;;;;;;5023971;28;20027;-62
2022/08/25 00:32:35;;;;;;;;;;;24.90;52.50;;;;;;5028568;28;19921;-61
2022/08/25 00:35:02;;;;;;;;;;;24.90;52.60;;;;;;5026640;28;19964;-61
2022/08/25 00:37:29;;;;;;;;;;;24.90;52.70;;;;;;5023696;28;19975;-62
2022/08/25 00:39:57;;;;;;;;;;;24.90;52.70;;;;;;5024042;28;19992;-62
2022/08/25 00:42:25;;;;;;;;;;;24.90;52.80;;;;;;5024858;28;20490;-62
2022/08/25 00:44:52;;;;;;;;;;;24.90;52.80;;;;;;5025847;28;19921;-61
2022/08/25 00:47:20;;;;;;;;;;;24.90;52.80;;;;;;5043765;28;19932;-61
2022/08/25 00:49:47;;;;;;;;;;;24.90;52.80;;;;;;5026961;28;19925;-62
2022/08/25 00:52:14;;;;;;;;;;;24.90;52.90;;;;;;5028107;28;20028;-62
2022/08/25 00:54:42;;;;;;;;;;;24.90;52.90;;;;;;5021847;28;19931;-62
2022/08/25 00:57:10;;;;;;;;;;;24.90;53.00;;;;;;5025950;28;20016;-62
2022/08/25 00:59:38;;;;;;;;;;;24.90;53.10;;;;;;5026620;28;19925;-61
2022/08/25 01:02:05;;;;;;;;;;;24.90;53.20;;;;;;5025455;28;20026;-63
2022/08/25 01:04:32;;;;;;;;;;;24.90;53.00;;;;;;5026646;28;20024;-62
2022/08/25 01:06:58;;;;;;;;;;;24.90;53.20;;;;;;5019340;28;19925;-62
2022/08/25 01:09:25;;;;;;;;;;;24.90;53.20;;;;;;5024906;28;20008;-62
2022/08/25 01:11:52;;;;;;;;;;;24.90;53.20;;;;;;5021459;28;20301;-62
2022/08/25 01:14:19;;;;;;;;;;;24.90;53.20;;;;;;5028095;28;19929;-62
2022/08/25 01:16:47;;;;;;;;;;;24.90;53.20;;;;;;5019277;28;19928;-62
2022/08/25 01:19:14;;;;;;;;;;;24.90;53.30;;;;;;5019553;28;19921;-62
2022/08/25 01:21:43;;;;;;;;;;;24.90;53.40;;;;;;5013594;28;19975;-62
2022/08/25 01:24:10;;;;;;;;;;;24.90;53.40;;;;;;5019635;28;19927;-62
2022/08/25 01:26:37;;;;;;;;;;;24.90;53.50;;;;;;5010711;28;19939;-62
2022/08/25 01:29:24;;;;;;;;;;;24.90;53.40;;;;;;5011112;28;19996;-62
2022/08/25 01:31:53;;;;;;;;;;;24.90;53.50;;;;;;5010866;28;19932;-62
2022/08/25 01:34:21;;;;;;;;;;;24.90;53.60;;;;;;5012073;28;19925;-62
2022/08/25 01:36:49;;;;;;;;;;;24.90;53.70;;;;;;5011414;28;19955;-62
2022/08/25 01:39:16;;;;;;;;;;;24.90;53.70;;;;;;5018777;28;20451;-62
2022/08/25 01:41:46;;;;;;;;;;;24.90;53.70;;;;;;5012859;28;20040;-63
2022/08/25 01:44:12;;;;;;;;;;;24.90;53.70;;;;;;5011070;28;20381;-62
2022/08/25 01:46:39;;;;;;;;;;;24.90;53.80;;;;;;5016494;28;20171;-62
2022/08/25 01:49:06;;;;;;;;;;;24.90;53.80;;;;;;5019905;28;20405;-62
2022/08/25 01:51:33;;;;;;;;;;;24.90;53.80;;;;;;5018401;28;19929;-62
2022/08/25 01:54:02;;;;;;;;;;;24.90;53.80;;;;;;5019452;28;20012;-62
2022/08/25 01:56:30;;;;;;;;;;;24.90;53.90;;;;;;5034146;28;19979;-61
2022/08/25 01:58:57;;;;;;;;;;;24.90;53.80;;;;;;5043445;28;20086;-62
2022/08/25 02:01:25;;;;;;;;;;;24.90;53.80;;;;;;5032449;28;19921;-62
2022/08/25 02:03:52;;;;;;;;;;;24.90;53.90;;;;;;5039032;28;20382;-62
2022/08/25 02:06:20;;;;;;;;;;;24.90;53.90;;;;;;5021314;28;19986;-62
2022/08/25 02:08:50;;;;;;;;;;;24.90;53.80;;;;;;5021508;28;19972;-62
2022/08/25 02:11:18;;;;;;;;;;;24.90;53.90;;;;;;5017764;28;20143;-62
2022/08/25 02:13:45;;;;;;;;;;;24.90;53.90;;;;;;5018069;28;20278;-61
2022/08/25 02:16:15;;;;;;;;;;;24.90;53.90;;;;;;5015788;28;19960;-62
2022/08/25 02:18:42;;;;;;;;;;;24.90;53.90;;;;;;5035172;28;20016;-62
2022/08/25 02:21:10;;;;;;;;;;;24.90;53.90;;;;;;5014126;28;20440;-62
2022/08/25 02:23:36;;;;;;;;;;;24.90;53.90;;;;;;5017979;28;19929;-62
2022/08/25 02:26:03;;;;;;;;;;;24.90;54.00;;;;;;5056967;28;20022;-61
2022/08/25 02:28:31;;;;;;;;;;;24.90;54.00;;;;;;5031224;28;19960;-61
2022/08/25 02:30:58;;;;;;;;;;;24.90;54.00;;;;;;5025106;28;19971;-62
2022/08/25 02:33:25;;;;;;;;;;;24.90;54.00;;;;;;5027164;28;20272;-62
2022/08/25 02:35:52;;;;;;;;;;;24.90;54.10;;;;;;5023352;28;19991;-61
2022/08/25 02:38:19;;;;;;;;;;;24.90;54.10;;;;;;5030522;28;19931;-62
2022/08/25 02:40:45;;;;;;;;;;;24.90;54.10;;;;;;5027692;28;19929;-61
2022/08/25 02:43:12;;;;;;;;;;;24.90;54.20;;;;;;5030843;28;19964;-62
2022/08/25 02:45:40;;;;;;;;;;;24.90;54.20;;;;;;5030057;28;19921;-62
2022/08/25 02:48:07;;;;;;;;;;;24.90;54.30;;;;;;5023824;28;20018;-62
2022/08/25 02:50:34;;;;;;;;;;;24.90;54.30;;;;;;5025136;28;19925;-61
2022/08/25 02:53:00;;;;;;;;;;;24.90;54.40;;;;;;5028227;28;19978;-62
2022/08/25 02:55:27;;;;;;;;;;;24.80;54.40;;;;;;5028149;28;20083;-62
2022/08/25 02:57:54;;;;;;;;;;;24.80;54.50;;;;;;5030539;28;19937;-62
2022/08/25 03:00:21;;;;;;;;;;;24.80;54.50;;;;;;5027697;28;20016;-62
2022/08/25 03:02:49;;;;;;;;;;;24.80;54.50;;;;;;5028858;28;20354;-62
2022/08/25 03:05:16;;;;;;;;;;;24.80;54.50;;;;;;5020915;28;19929;-62
2022/08/25 03:07:43;;;;;;;;;;;24.80;54.50;;;;;;5028034;28;19925;-62
2022/08/25 03:10:11;;;;;;;;;;;24.80;54.50;;;;;;5027352;28;19971;-62
2022/08/25 03:12:40;;;;;;;;;;;24.80;54.60;;;;;;5024725;28;19933;-61
2022/08/25 03:15:07;;;;;;;;;;;24.80;54.60;;;;;;5030497;28;19979;-62
2022/08/25 03:17:34;;;;;;;;;;;24.80;54.60;;;;;;5028123;28;19921;-62
2022/08/25 03:20:02;;;;;;;;;;;24.80;54.60;;;;;;5029067;28;19936;-61
2022/08/25 03:22:29;;;;;;;;;;;24.80;54.60;;;;;;5025635;28;19921;-62
2022/08/25 03:26:52;;;;;;;;;;;24.80;54.60;;;;;;5030188;28;19931;-62
2022/08/25 03:27:42;;;;;;;;;;;24.80;54.60;;;;;;5025482;28;19921;-62
2022/08/25 03:30:10;;;;;;;;;;;24.80;54.60;;;;;;5029335;28;19921;-62
2022/08/25 03:32:37;;;;;;;;;;;24.80;54.60;;;;;;5027401;28;20057;-62
2022/08/25 03:35:05;;;;;;;;;;;24.80;54.60;;;;;;5029507;28;19956;-62
2022/08/25 03:37:32;;;;;;;;;;;24.80;54.60;;;;;;5024915;28;19921;-62
2022/08/25 03:39:59;;;;;;;;;;;24.80;54.60;;;;;;5030053;28;20359;-61
2022/08/25 03:42:26;;;;;;;;;;;24.80;54.60;;;;;;5029365;28;19928;-62
2022/08/25 03:44:54;;;;;;;;;;;24.80;54.70;;;;;;5029426;28;20363;-62
2022/08/25 03:47:23;;;;;;;;;;;24.80;54.70;;;;;;5023844;28;19921;-62
2022/08/25 03:49:50;;;;;;;;;;;24.80;54.70;;;;;;5031079;28;19928;-62
2022/08/25 03:52:19;;;;;;;;;;;24.80;54.70;;;;;;5021208;28;20378;-62
2022/08/25 03:54:46;;;;;;;;;;;24.80;54.70;;;;;;5041951;28;19921;-62
2022/08/25 03:57:12;;;;;;;;;;;24.80;54.70;;;;;;5026865;28;19921;-62
2022/08/25 03:59:39;;;;;;;;;;;24.70;54.60;;;;;;5028202;28;19965;-61
2022/08/25 04:02:06;;;;;;;;;;;24.70;54.70;;;;;;5025862;28;20015;-62
2022/08/25 04:04:33;;;;;;;;;;;24.70;54.70;;;;;;5027979;28;19921;-62
2022/08/25 04:06:59;;;;;;;;;;;24.80;54.80;;;;;;5025054;28;19921;-62
2022/08/25 04:09:27;;;;;;;;;;;24.70;54.70;;;;;;5029060;28;19932;-62
2022/08/25 04:11:54;;;;;;;;;;;24.80;54.80;;;;;;5023547;28;19921;-62
2022/08/25 04:14:22;;;;;;;;;;;24.70;54.70;;;;;;5029027;28;20036;-62
2022/08/25 04:16:49;;;;;;;;;;;24.70;54.70;;;;;;5026287;28;19921;-61
2022/08/25 04:19:16;;;;;;;;;;;24.70;54.70;;;;;;5029129;28;19921;-62
2022/08/25 04:21:42;;;;;;;;;;;24.70;54.80;;;;;;5025254;28;19921;-62
2022/08/25 04:24:10;;;;;;;;;;;24.70;54.80;;;;;;5008172;28;19922;-62
2022/08/25 04:26:38;;;;;;;;;;;24.70;54.70;;;;;;5023702;28;20270;-61
2022/08/25 04:29:05;;;;;;;;;;;24.70;54.90;;;;;;5022806;28;19921;-62
2022/08/25 04:31:32;;;;;;;;;;;24.70;54.90;;;;;;5028937;28;20449;-62
2022/08/25 04:34:01;;;;;;;;;;;24.70;54.90;;;;;;5026697;28;19925;-62
2022/08/25 04:36:28;;;;;;;;;;;24.70;54.90;;;;;;5027082;28;19921;-62
2022/08/25 04:38:54;;;;;;;;;;;24.70;54.90;;;;;;5028595;28;20027;-62
2022/08/25 04:41:22;;;;;;;;;;;24.70;54.90;;;;;;5024277;28;20029;-62
2022/08/25 04:43:50;;;;;;;;;;;24.70;54.90;;;;;;5023618;28;19964;-62
2022/08/25 04:46:17;;;;;;;;;;;24.70;55.00;;;;;;5025808;28;19929;-62
2022/08/25 04:48:44;;;;;;;;;;;24.70;55.00;;;;;;5027190;28;19936;-62
2022/08/25 04:51:11;;;;;;;;;;;24.70;55.00;;;;;;5027906;28;20440;-62
2022/08/25 04:53:38;;;;;;;;;;;24.70;55.10;;;;;;5050738;28;19925;-62
2022/08/25 04:56:05;;;;;;;;;;;24.70;55.00;;;;;;5051591;28;20311;-62
2022/08/25 04:58:32;;;;;;;;;;;24.70;55.10;;;;;;5017559;28;20374;-61
2022/08/25 05:01:02;;;;;;;;;;;24.70;55.10;;;;;;5024349;28;19940;-62
2022/08/25 05:03:29;;;;;;;;;;;24.70;55.10;;;;;;5019168;28;19967;-63
2022/08/25 05:05:56;;;;;;;;;;;24.70;55.00;;;;;;5022863;28;19932;-62
2022/08/25 05:08:23;;;;;;;;;;;24.70;55.00;;;;;;5022743;28;19927;-62
2022/08/25 05:10:53;;;;;;;;;;;24.70;54.90;;;;;;5028291;28;19925;-62
2022/08/25 05:13:20;;;;;;;;;;;24.70;54.90;;;;;;5023539;28;19932;-62
2022/08/25 05:15:51;;;;;;;;;;;24.70;54.90;;;;;;5024945;28;19921;-62
2022/08/25 05:18:20;;;;;;;;;;;24.70;54.90;;;;;;5027191;28;19928;-61
2022/08/25 05:20:47;;;;;;;;;;;24.70;54.90;;;;;;5012476;28;19925;-61
2022/08/25 05:23:14;;;;;;;;;;;24.70;54.80;;;;;;5024936;28;19943;-60
2022/08/25 05:25:41;;;;;;;;;;;24.70;54.80;;;;;;5028749;28;19921;-61
2022/08/25 05:28:08;;;;;;;;;;;24.70;54.90;;;;;;5024727;28;19921;-60
2022/08/25 05:30:37;;;;;;;;;;;24.70;54.90;;;;;;5024933;28;19963;-61
2022/08/25 05:33:03;;;;;;;;;;;24.70;54.90;;;;;;5013400;28;20000;-61
2022/08/25 05:35:32;;;;;;;;;;;24.70;54.90;;;;;;5020034;28;19928;-61
2022/08/25 05:37:58;;;;;;;;;;;24.70;54.90;;;;;;5022599;28;19921;-61
2022/08/25 05:40:25;;;;;;;;;;;24.70;55.10;;;;;;5035894;28;19972;-61
2022/08/25 05:42:53;;;;;;;;;;;24.70;55.10;;;;;;5028272;28;19927;-61
2022/08/25 05:45:20;;;;;;;;;;;24.70;55.10;;;;;;5058326;28;19921;-60
2022/08/25 05:47:46;;;;;;;;;;;24.70;55.10;;;;;;5019875;28;20012;-61
2022/08/25 05:50:13;;;;;;;;;;;24.70;55.20;;;;;;5008587;28;19968;-61
2022/08/25 05:52:41;;;;;;;;;;;24.70;55.30;;;;;;5018289;28;20448;-60
2022/08/25 05:55:08;;;;;;;;;;;24.70;55.30;;;;;;5045507;28;19921;-60
2022/08/25 05:57:35;;;;;;;;;;;24.70;55.30;;;;;;5017042;28;19971;-61
2022/08/25 06:00:02;;;;;;;;;;;24.70;55.30;;;;;;5027739;28;19928;-61
2022/08/25 06:02:40;;;;;;;;;;;24.70;55.30;;;;;;5021243;28;19971;-60
2022/08/25 06:05:07;;;;;;;;;;;24.70;55.40;;;;;;5010601;28;20011;-61
2022/08/25 06:07:35;;;;;;;;;;;24.70;55.40;;;;;;5009186;28;19931;-60
2022/08/25 06:10:03;;;;;;;;;;;24.70;55.50;;;;;;5012077;28;19921;-61
2022/08/25 06:12:31;;;;;;;;;;;24.70;55.40;;;;;;5029779;28;19926;-60
2022/08/25 06:14:58;;;;;;;;;;;24.70;55.50;;;;;;5018015;28;20009;-60
2022/08/25 06:17:25;;;;;;;;;;;24.70;55.40;;;;;;5039655;28;19952;-61
2022/08/25 06:19:52;;;;;;;;;;;24.70;55.50;;;;;;5010517;28;19933;-61
2022/08/25 06:22:20;;;;;;;;;;;24.70;55.40;;;;;;5011052;28;19975;-61
2022/08/25 06:24:46;;;;;;;;;;;24.70;55.60;;;;;;5020864;28;19960;-61
2022/08/25 06:27:15;;;;;;;;;;;24.70;55.60;;;;;;5019864;28;19921;-61
2022/08/25 06:29:41;;;;;;;;;;;24.70;55.70;;;;;;5027307;28;20004;-60
2022/08/25 06:32:08;;;;;;;;;;;24.60;55.60;;;;;;5027201;28;19968;-61
2022/08/25 06:34:35;;;;;;;;;;;24.60;55.70;;;;;;5010909;28;19928;-61
2022/08/25 06:37:02;;;;;;;;;;;24.60;55.60;;;;;;5050906;28;19925;-60
2022/08/25 06:39:29;;;;;;;;;;;24.60;55.70;;;;;;5051627;28;19922;-60
2022/08/25 06:41:56;;;;;;;;;;;24.60;55.80;;;;;;5011958;28;19983;-61
2022/08/25 06:44:25;;;;;;;;;;;24.60;55.80;;;;;;5034818;28;19929;-60
2022/08/25 06:46:51;;;;;;;;;;;24.60;55.80;;;;;;5038036;28;19975;-60
2022/08/25 06:49:18;;;;;;;;;;;24.60;56.50;;;;;;5059795;28;20024;-61
2022/08/25 06:51:45;;;;;;;;;;;24.60;55.90;;;;;;5010342;28;20028;-61
2022/08/25 06:54:12;;;;;;;;;;;24.60;55.90;;;;;;5012824;28;19936;-60
2022/08/25 06:56:39;;;;;;;;;;;24.60;56.00;;;;;;5011774;28;19927;-60
2022/08/25 06:59:05;;;;;;;;;;;24.60;56.10;;;;;;5021217;28;20016;-60
2022/08/25 07:01:33;;;;;;;;;;;24.60;56.00;;;;;;5022231;28;19921;-60
2022/08/25 07:04:01;;;;;;;;;;;24.60;56.00;;;;;;5030836;28;20485;-61
2022/08/25 07:06:28;;;;;;;;;;;24.60;56.10;;;;;;5024615;28;20309;-60
2022/08/25 07:08:54;;;;;;;;;;;24.60;56.20;;;;;;5025156;28;20018;-61
2022/08/25 07:11:21;;;;;;;;;;;24.60;56.30;;;;;;5023193;28;19925;-61
2022/08/25 07:13:48;;;;;;;;;;;24.50;56.30;;;;;;5028557;28;20020;-60
2022/08/25 07:16:16;;;;;;;;;;;24.50;56.30;;;;;;5021454;28;19927;-61
2022/08/25 07:18:44;;;;;;;;;;;24.50;56.30;;;;;;5022572;28;19928;-61
2022/08/25 07:21:11;;;;;;;;;;;24.50;56.20;;;;;;5015706;28;19930;-61
2022/08/25 07:23:38;;;;;;;;;;;24.50;56.30;;;;;;5020713;28;20011;-61
2022/08/25 07:26:09;;;;;;;;;;;24.50;56.30;;;;;;5023744;28;19967;-61
2022/08/25 07:28:35;;;;;;;;;;;24.50;56.30;;;;;;5013930;28;19925;-61
2022/08/25 07:31:02;;;;;;;;;;;24.50;56.30;;;;;;5020046;28;19967;-60
2022/08/25 07:33:29;;;;;;;;;;;24.50;56.40;;;;;;5021313;28;19979;-61
2022/08/25 07:35:57;;;;;;;;;;;24.50;56.40;;;;;;5026632;28;19967;-61
2022/08/25 07:38:23;;;;;;;;;;;24.50;56.40;;;;;;5019909;28;19925;-60
2022/08/25 07:40:53;;;;;;;;;;;24.50;56.40;;;;;;5016709;28;19922;-60
2022/08/25 07:43:20;;;;;;;;;;;24.50;56.30;;;;;;5049471;28;19928;-60
2022/08/25 07:45:47;;;;;;;;;;;24.50;56.40;;;;;;5030372;28;19921;-61
2022/08/25 07:48:14;;;;;;;;;;;24.50;56.40;;;;;;5023494;28;19922;-60
2022/08/25 07:50:42;;;;;;;;;;;24.50;56.50;;;;;;5014551;28;19925;-60
2022/08/25 07:53:11;;;;;;;;;;;24.50;56.50;;;;;;5035157;28;19932;-61
2022/08/25 07:55:38;;;;;;;;;;;24.50;56.50;;;;;;5027482;28;20019;-61
2022/08/25 07:58:04;;;;;;;;;;;24.50;56.40;;;;;;5020872;28;20378;-61
2022/08/25 08:00:32;;;;;;;;;;;24.50;56.50;;;;;;5025553;28;20015;-61
2022/08/25 08:02:59;;;;;;;;;;;24.50;56.50;;;;;;5029322;28;19925;-60
2022/08/25 08:05:26;;;;;;;;;;;24.50;56.60;;;;;;5014258;28;19940;-61
2022/08/25 08:07:53;;;;;;;;;;;24.50;56.70;;;;;;5024047;28;19931;-60
2022/08/25 08:10:22;;;;;;;;;;;24.50;56.70;;;;;;5055391;28;20287;-60
2022/08/25 08:12:48;;;;;;;;;;;24.50;56.60;;;;;;5021033;28;19928;-60
2022/08/25 08:15:15;;;;;;;;;;;24.50;56.70;;;;;;5025645;28;19948;-60
2022/08/25 08:17:42;;;;;;;;;;;24.50;56.80;;;;;;5025462;28;19921;-60
2022/08/25 08:20:10;;;;;;;;;;;24.50;56.80;;;;;;5022497;28;19933;-61
2022/08/25 08:22:36;;;;;;;;;;;24.50;56.90;;;;;;5028584;28;19925;-61
2022/08/25 08:25:03;;;;;;;;;;;24.40;56.80;;;;;;5023960;28;19920;-61
2022/08/25 08:27:31;;;;;;;;;;;24.50;56.90;;;;;;5026750;28;19955;-60
2022/08/25 08:29:58;;;;;;;;;;;24.50;56.90;;;;;;5024200;28;19968;-61
2022/08/25 08:32:25;;;;;;;;;;;24.50;56.80;;;;;;5027796;28;19924;-61
2022/08/25 08:34:52;;;;;;;;;;;24.50;57.00;;;;;;5023027;28;19928;-60
2022/08/25 08:37:21;;;;;;;;;;;24.50;57.00;;;;;;5019970;28;20256;-61
2022/08/25 08:39:48;;;;;;;;;;;24.50;56.90;;;;;;5023590;28;19922;-60
2022/08/25 08:42:16;;;;;;;;;;;24.50;57.00;;;;;;5021502;28;19925;-62
2022/08/25 08:45:04;;;;;;;;;;;24.50;57.10;;;;;;5021357;28;20016;-60
2022/08/25 08:47:35;;;;;;;;;;;24.50;57.10;;;;;;5012453;28;20010;-60
2022/08/25 08:50:03;;;;;;;;;;;24.50;57.10;;;;;;5024639;28;19979;-60
2022/08/25 08:52:37;;;;;;;;;;;24.50;57.20;;;;;;5020744;28;19928;-60
2022/08/25 08:55:05;;;;;;;;;;;24.50;57.40;;;;;;5042040;28;19925;-61
2022/08/25 08:57:34;;;;;;;;;;;24.50;57.40;;;;;;5015618;28;19976;-61
2022/08/25 09:00:01;;;;;;;;;;;24.50;57.30;;;;;;5024086;28;19928;-61
2022/08/25 09:02:29;;;;;;;;;;;24.50;57.40;;;;;;5017264;28;19930;-61
2022/08/25 09:04:57;;;;;;;;;;;24.50;57.50;;;;;;5028311;28;19928;-60
2022/08/25 09:07:26;;;;;;;;;;;24.50;57.40;;;;;;5019618;28;20028;-61
2022/08/25 09:09:53;;;;;;;;;;;24.50;57.40;;;;;;5012182;28;19922;-61
2022/08/25 09:12:22;;;;;;;;;;;24.50;57.40;;;;;;5042267;28;19980;-60
2022/08/25 09:14:52;;;;;;;;;;;24.50;57.40;;;;;;5024076;28;19921;-61
2022/08/25 09:17:20;;;;;;;;;;;24.50;57.50;;;;;;5044579;28;20326;-60
2022/08/25 09:19:57;;;;;;;;;;;24.50;57.50;;;;;;5023369;28;19944;-61
2022/08/25 09:22:29;;;;;;;;;;;24.50;57.50;;;;;;5029136;28;19975;-61
2022/08/25 09:24:57;;;;;;;;;;;24.50;57.60;;;;;;5025674;28;19937;-61
2022/08/25 09:27:25;;;;;;;;;;;24.50;57.50;;;;;;5018890;28;19967;-60
2022/08/25 09:29:55;;;;;;;;;;;24.50;57.60;;;;;;5025479;28;20425;-60
2022/08/25 09:32:22;;;;;;;;;;;24.50;57.70;;;;;;5022477;28;19988;-61
2022/08/25 09:34:49;;;;;;;;;;;24.50;57.60;;;;;;5015874;28;19929;-61
2022/08/25 09:37:16;;;;;;;;;;;24.50;57.80;;;;;;5024858;28;19996;-60
2022/08/25 09:39:44;;;;;;;;;;;24.50;57.80;;;;;;5025843;28;20448;-60
2022/08/25 09:42:11;;;;;;;;;;;24.50;57.70;;;;;;5038425;28;19925;-61
2022/08/25 09:44:40;;;;;;;;;;;24.50;57.70;;;;;;5021509;28;20382;-60
2022/08/25 09:47:08;;;;;;;;;;;24.50;57.60;;;;;;5024322;28;19980;-60
2022/08/25 09:49:36;;;;;;;;;;;24.50;57.70;;;;;;5024763;28;20335;-60
2022/08/25 09:52:21;;;;;;;;;;;24.50;57.70;;;;;;5022322;28;19921;-60
2022/08/25 09:54:49;;;;;;;;;;;24.50;57.70;;;;;;5016710;28;20020;-61
2022/08/25 09:57:27;;;;;;;;;;;24.50;58.00;;;;;;5033012;28;19925;-60
2022/08/25 09:59:54;;;;;;;;;;;24.50;57.70;;;;;;5020928;28;20367;-61
2022/08/25 10:02:24;;;;;;;;;;;24.50;57.80;;;;;;5031074;28;19921;-60
2022/08/25 10:04:53;;;;;;;;;;;24.50;57.70;;;;;;5025796;28;19956;-60
2022/08/25 10:07:21;;;;;;;;;;;24.50;57.90;;;;;;5021250;28;19932;-61
2022/08/25 10:09:52;;;;;;;;;;;24.50;58.00;;;;;;5028266;28;19921;-61
2022/08/25 10:12:21;;;;;;;;;;;24.50;58.00;;;;;;5020916;28;19926;-61
2022/08/25 10:14:48;;;;;;;;;;;24.50;58.00;;;;;;5031166;28;19988;-60
2022/08/25 10:17:15;;;;;;;;;;;24.50;58.00;;;;;;5024719;28;20024;-61
2022/08/25 10:19:42;;;;;;;;;;;24.50;58.00;;;;;;5062611;28;19925;-62
2022/08/25 10:22:10;;;;;;;;;;;24.50;58.00;;;;;;5021073;28;19921;-61
2022/08/25 10:24:37;;;;;;;;;;;24.50;58.10;;;;;;5024345;28;20016;-60
2022/08/25 10:27:08;;;;;;;;;;;24.50;58.00;;;;;;5032060;28;19925;-61
2022/08/25 10:29:39;;;;;;;;;;;24.50;58.00;;;;;;5016900;28;20021;-61
2022/08/25 10:32:09;;;;;;;;;;;24.50;58.10;;;;;;5035331;28;19921;-60
2022/08/25 10:34:38;;;;;;;;;;;24.50;58.00;;;;;;5028117;28;20321;-60
2022/08/25 10:37:06;;;;;;;;;;;24.50;58.00;;;;;;5026288;28;20358;-61
2022/08/25 10:39:38;;;;;;;;;;;24.50;58.00;;;;;;5018827;28;19929;-61
2022/08/25 10:42:10;;;;;;;;;;;24.50;58.00;;;;;;5028752;28;20019;-61
2022/08/25 10:47:29;;;;;;;;;;;24.50;58.10;;;;;;5019551;28;19926;-60
2022/08/25 10:49:56;;;;;;;;;;;24.60;58.20;;;;;;5030318;28;20020;-61
2022/08/25 10:52:23;;;;;;;;;;;24.60;58.10;;;;;;5020096;28;19921;-60
2022/08/25 10:54:53;;;;;;;;;;;24.60;58.20;;;;;;5019960;28;20012;-61
2022/08/25 10:57:22;;;;;;;;;;;24.60;58.20;;;;;;5044914;28;19933;-60
2022/08/25 10:59:51;;;;;;;;;;;24.60;58.10;;;;;;5029159;28;19928;-60
2022/08/25 11:02:37;;;;;;;;;;;24.60;58.10;;;;;;5027947;28;20020;-60
2022/08/25 11:05:05;;;;;;;;;;;24.60;58.10;;;;;;4980286;28;19925;-60
2022/08/25 11:07:33;;;;;;;;;;;24.60;58.10;;;;;;5011875;28;20363;-60
2022/08/25 11:10:02;;;;;;;;;;;24.60;58.00;;;;;;5026974;28;19953;-60
2022/08/25 11:12:31;;;;;;;;;;;24.60;58.00;;;;;;5025425;28;19921;-61
2022/08/25 11:14:58;;;;;;;;;;;24.60;57.90;;;;;;5019934;28;19945;-60
2022/08/25 11:17:25;;;;;;;;;;;24.60;57.90;;;;;;5023060;28;20496;-61
2022/08/25 11:19:52;;;;;;;;;;;24.60;57.90;;;;;;5021754;28;19936;-60
2022/08/25 11:22:20;;;;;;;;;;;24.60;57.90;;;;;;5016599;28;19968;-60
2022/08/25 11:24:52;;;;;;;;;;;24.60;57.80;;;;;;5025879;28;19921;-60
2022/08/25 11:27:21;;;;;;;;;;;24.60;57.70;;;;;;5020901;28;20020;-61
2022/08/25 11:29:54;;;;;;;;;;;24.60;57.70;;;;;;5046685;28;19928;-60
2022/08/25 11:32:21;;;;;;;;;;;24.60;57.70;;;;;;5023063;28;19921;-60
2022/08/25 11:34:48;;;;;;;;;;;24.70;57.70;;;;;;5023663;28;19933;-60
2022/08/25 11:37:25;;;;;;;;;;;24.70;57.60;;;;;;5021338;28;19966;-61
2022/08/25 11:39:58;;;;;;;;;;;24.70;57.70;;;;;;5015302;28;19937;-60
2022/08/25 11:42:27;;;;;;;;;;;24.70;57.70;;;;;;5016485;28;19967;-61
2022/08/25 11:44:58;;;;;;;;;;;24.70;57.70;;;;;;5025387;28;20026;-61
2022/08/25 11:47:41;;;;;;;;;;;24.70;57.60;;;;;;5027465;28;19921;-60
2022/08/25 11:50:08;;;;;;;;;;;24.70;57.60;;;;;;5014650;28;20074;-61
2022/08/25 11:52:54;;;;;;;;;;;24.70;57.50;;;;;;5020406;28;19932;-61
2022/08/25 11:55:22;;;;;;;;;;;24.70;57.50;;;;;;5026427;28;19928;-61
2022/08/25 11:57:49;;;;;;;;;;;24.70;57.50;;;;;;5047644;28;19932;-61
2022/08/25 12:00:35;;;;;;;;;;;24.70;57.50;;;;;;5023624;28;19921;-61
2022/08/25 12:03:08;;;;;;;;;;;24.80;57.60;;;;;;5016630;28;20084;-61
2022/08/25 12:05:51;;;;;;;;;;;24.70;57.50;;;;;;5025908;28;19978;-61
2022/08/25 12:08:40;;;;;;;;;;;24.80;57.50;;;;;;5014315;28;20273;-61
2022/08/25 12:11:09;;;;;;;;;;;24.80;57.50;;;;;;5023422;28;19921;-61
2022/08/25 12:13:41;;;;;;;;;;;24.80;57.50;;;;;;5018468;28;19922;-60
2022/08/25 12:16:09;;;;;;;;;;;24.80;57.40;;;;;;5016513;28;19921;-60
2022/08/25 12:18:42;;;;;;;;;;;24.80;57.40;;;;;;5025203;28;20031;-60
2022/08/25 12:21:13;;;;;;;;;;;24.80;57.30;;;;;;5022545;28;19973;-61
2022/08/25 12:23:40;;;;;;;;;;;24.80;57.30;;;;;;5024587;28;19928;-60
2022/08/25 12:26:08;;;;;;;;;;;24.80;57.30;;;;;;5020633;28;19921;-61
2022/08/25 12:28:43;;;;;;;;;;;24.80;57.20;;;;;;5026037;28;20032;-61
2022/08/25 12:31:17;;;;;;;;;;;24.80;57.20;;;;;;5016971;28;19922;-61
2022/08/25 12:33:47;;;;;;;;;;;24.80;57.10;;;;;;5016122;28;19955;-60
2022/08/25 12:36:25;;;;;;;;;;;24.80;57.10;;;;;;5024439;28;19921;-60
2022/08/25 12:38:52;;;;;;;;;;;24.80;57.00;;;;;;5022718;28;19925;-61
2022/08/25 12:41:20;;;;;;;;;;;24.80;57.00;;;;;;5027160;28;19921;-61
2022/08/25 12:43:47;;;;;;;;;;;24.80;56.90;;;;;;5044956;28;19921;-61
2022/08/25 12:46:34;;;;;;;;;;;24.90;57.00;;;;;;5025140;28;19968;-61
2022/08/25 12:49:01;;;;;;;;;;;24.90;56.90;;;;;;5018269;28;19984;-61
2022/08/25 12:51:44;;;;;;;;;;;24.90;56.90;;;;;;5022963;28;20240;-60
2022/08/25 12:54:12;;;;;;;;;;;24.90;56.90;;;;;;5023279;28;19968;-61
2022/08/25 12:56:40;;;;;;;;;;;24.90;56.80;;;;;;5021892;28;19928;-60
2022/08/25 12:59:12;;;;;;;;;;;24.90;56.70;;;;;;5015359;28;19928;-61
2022/08/25 13:01:43;;;;;;;;;;;24.90;56.70;;;;;;5023056;28;20020;-61
2022/08/25 13:04:24;;;;;;;;;;;24.90;56.70;;;;;;5018410;28;20385;-61
2022/08/25 13:06:55;;;;;;;;;;;24.90;56.60;;;;;;5022781;28;19927;-60
2022/08/25 13:09:34;;;;;;;;;;;24.90;56.60;;;;;;5026558;28;19921;-61
2022/08/25 13:12:02;;;;;;;;;;;24.90;56.50;;;;;;5027202;28;20020;-60
2022/08/25 13:14:30;;;;;;;;;;;24.90;56.50;;;;;;5024377;28;19975;-61
2022/08/25 13:16:59;;;;;;;;;;;24.90;56.30;;;;;;5025795;28;19925;-60
2022/08/25 13:19:26;;;;;;;;;;;24.90;56.20;;;;;;5019679;28;19957;-60
2022/08/25 13:21:53;;;;;;;;;;;24.90;56.10;;;;;;5018539;28;19935;-60
2022/08/25 13:24:21;;;;;;;;;;;24.90;56.10;;;;;;5033650;28;20249;-60
2022/08/25 13:26:49;;;;;;;;;;;24.90;56.00;;;;;;5023724;28;19928;-60
2022/08/25 13:29:18;;;;;;;;;;;24.90;56.00;;;;;;5017068;28;19975;-61
2022/08/25 13:31:53;;;;;;;;;;;24.90;55.90;;;;;;5022297;28;19934;-61
2022/08/25 13:34:22;;;;;;;;;;;24.90;55.90;;;;;;5029405;28;19932;-61
2022/08/25 13:39:33;;;;;;;;;;;24.90;55.90;;;;;;5027543;28;19983;-61
2022/08/25 13:42:01;;;;;;;;;;;24.90;55.80;;;;;;5025779;28;19922;-60
2022/08/25 13:44:28;;;;;;;;;;;24.90;55.70;;;;;;5031527;28;19925;-61
2022/08/25 13:47:04;;;;;;;;;;;24.90;55.70;;;;;;5030029;28;19960;-61
2022/08/25 13:49:33;;;;;;;;;;;24.90;55.60;;;;;;5031682;28;20218;-61
2022/08/25 13:51:59;;;;;;;;;;;24.90;55.60;;;;;;5023880;28;19925;-61
2022/08/25 13:54:27;;;;;;;;;;;24.90;55.60;;;;;;5026336;28;20395;-61
2022/08/25 13:56:54;;;;;;;;;;;24.90;55.50;;;;;;5027232;28;19976;-61
2022/08/25 13:59:23;;;;;;;;;;;24.90;55.50;;;;;;5017065;28;19936;-61
2022/08/25 14:01:49;;;;;;;;;;;24.90;55.50;;;;;;5024464;28;19991;-61
2022/08/25 14:04:20;;;;;;;;;;;24.90;55.40;;;;;;5028382;28;19933;-60
2022/08/25 14:06:48;;;;;;;;;;;24.90;55.40;;;;;;5025762;28;20012;-61
2022/08/25 14:09:15;;;;;;;;;;;24.90;55.40;;;;;;5022610;28;19995;-61
2022/08/25 14:11:43;;;;;;;;;;;24.90;55.30;;;;;;5023295;28;20000;-61
2022/08/25 14:14:11;;;;;;;;;;;25.00;55.40;;;;;;5061820;28;19956;-60
2022/08/25 14:16:38;;;;;;;;;;;25.00;55.30;;;;;;5025473;28;19940;-61
2022/08/25 14:19:05;;;;;;;;;;;25.00;55.30;;;;;;5026963;28;19930;-61
2022/08/25 14:21:32;;;;;;;;;;;25.00;55.30;;;;;;5024446;28;19925;-61
2022/08/25 14:24:00;;;;;;;;;;;25.00;55.30;;;;;;5027946;28;20556;-60
2022/08/25 14:26:27;;;;;;;;;;;25.00;55.20;;;;;;5025713;28;20252;-60
2022/08/25 14:28:54;;;;;;;;;;;25.00;55.20;;;;;;5025787;28;19968;-61